Terminal Aerodrome Forecast
Issued by NWS Burlington, VT

Home | Current Version | Previous Version | Text Only | Print | Product List | Glossary On
Versions: 1 2 3 4 5 6 7 8 9 10 11 12 13 14
000
FTUS41 KBTV 250520
TAFBTV
TAF
KBTV 250520Z 2506/2606 VRB05KT P6SM BKN250
     FM251000 13008G17KT P6SM VCSH OVC140
     FM251200 14014G22KT 2SM -RASNPL BR OVC045
     FM251900 16019G28KT 4SM -RASNPL BR OVC030
     FM252000 16018G26KT P6SM VCSH OVC035
     FM252300 16011KT P6SM OVC050
     FM260500 18008KT P6SM SCT200=

USA.gov is the U.S. government's official web portal to all federal, state and local government web resources and services.